sensor_id;sensor_type;location;lat;lon;timestamp;pressure;altitude;pressure_sealevel;temperature;humidity
26865;BME280;40618;51.166;10.322;2023-09-19T00:00:36;96668.84;;;17.50;77.34
26865;BME280;40618;51.166;10.322;2023-09-19T00:03:03;96669.66;;;17.50;77.21
26865;BME280;40618;51.166;10.322;2023-09-19T00:05:33;96664.31;;;17.52;76.92
26865;BME280;40618;51.166;10.322;2023-09-19T00:08:00;96668.00;;;17.49;77.21
26865;BME280;40618;51.166;10.322;2023-09-19T00:10:29;96672.50;;;17.47;77.01
26865;BME280;40618;51.166;10.322;2023-09-19T00:13:01;96664.84;;;17.44;76.89
26865;BME280;40618;51.166;10.322;2023-09-19T00:15:37;96677.94;;;17.44;77.02
26865;BME280;40618;51.166;10.322;2023-09-19T00:18:06;96672.94;;;17.41;77.01
26865;BME280;40618;51.166;10.322;2023-09-19T00:20:32;96674.09;;;17.37;76.74
26865;BME280;40618;51.166;10.322;2023-09-19T00:23:00;96675.25;;;17.33;76.66
26865;BME280;40618;51.166;10.322;2023-09-19T00:25:33;96679.03;;;17.29;76.53
26865;BME280;40618;51.166;10.322;2023-09-19T00:28:00;96675.81;;;17.25;76.34
26865;BME280;40618;51.166;10.322;2023-09-19T00:30:26;96679.47;;;17.22;76.63
26865;BME280;40618;51.166;10.322;2023-09-19T00:32:52;96686.34;;;17.23;76.55
26865;BME280;40618;51.166;10.322;2023-09-19T00:35:18;96684.69;;;17.22;76.37
26865;BME280;40618;51.166;10.322;2023-09-19T00:37:44;96682.78;;;17.24;76.21
26865;BME280;40618;51.166;10.322;2023-09-19T00:40:10;96690.41;;;17.28;76.39
26865;BME280;40618;51.166;10.322;2023-09-19T00:42:42;96685.94;;;17.30;76.17
26865;BME280;40618;51.166;10.322;2023-09-19T00:45:10;96690.22;;;17.31;76.55
26865;BME280;40618;51.166;10.322;2023-09-19T00:47:50;96690.94;;;17.33;76.30
26865;BME280;40618;51.166;10.322;2023-09-19T00:50:17;96694.41;;;17.33;76.05
26865;BME280;40618;51.166;10.322;2023-09-19T00:52:46;96699.72;;;17.32;76.04
26865;BME280;40618;51.166;10.322;2023-09-19T00:55:15;96702.69;;;17.27;75.98
26865;BME280;40618;51.166;10.322;2023-09-19T00:57:44;96694.13;;;17.25;76.19
26865;BME280;40618;51.166;10.322;2023-09-19T01:00:10;96699.44;;;17.23;76.28
26865;BME280;40618;51.166;10.322;2023-09-19T01:02:41;96706.66;;;17.20;75.83
26865;BME280;40618;51.166;10.322;2023-09-19T01:05:10;96711.03;;;17.19;76.29
26865;BME280;40618;51.166;10.322;2023-09-19T01:07:37;96709.50;;;17.17;76.15
26865;BME280;40618;51.166;10.322;2023-09-19T01:10:08;96716.50;;;17.16;76.06
26865;BME280;40618;51.166;10.322;2023-09-19T01:20:53;96715.47;;;17.06;76.06
26865;BME280;40618;51.166;10.322;2023-09-19T01:32:09;96719.59;;;16.83;76.09
26865;BME280;40618;51.166;10.322;2023-09-19T01:37:18;96720.66;;;16.80;75.87
26865;BME280;40618;51.166;10.322;2023-09-19T01:40:13;96727.53;;;16.81;76.00
26865;BME280;40618;51.166;10.322;2023-09-19T01:43:16;96718.97;;;16.79;76.02
26865;BME280;40618;51.166;10.322;2023-09-19T01:48:54;96733.38;;;16.72;75.97
26865;BME280;40618;51.166;10.322;2023-09-19T01:51:45;96736.41;;;16.66;76.11
26865;BME280;40618;51.166;10.322;2023-09-19T01:54:27;96739.94;;;16.65;75.84
26865;BME280;40618;51.166;10.322;2023-09-19T01:57:14;96743.06;;;16.57;75.51
26865;BME280;40618;51.166;10.322;2023-09-19T01:59:50;96750.47;;;16.50;76.13
26865;BME280;40618;51.166;10.322;2023-09-19T02:02:21;96752.56;;;16.45;75.72
26865;BME280;40618;51.166;10.322;2023-09-19T02:04:48;96747.53;;;16.42;75.90
26865;BME280;40618;51.166;10.322;2023-09-19T02:07:16;96757.97;;;16.42;75.87
26865;BME280;40618;51.166;10.322;2023-09-19T02:09:42;96753.59;;;16.42;76.00
26865;BME280;40618;51.166;10.322;2023-09-19T02:12:09;96759.13;;;16.38;75.63
26865;BME280;40618;51.166;10.322;2023-09-19T02:14:35;96753.34;;;16.33;75.98
26865;BME280;40618;51.166;10.322;2023-09-19T02:17:02;96755.03;;;16.34;76.14
26865;BME280;40618;51.166;10.322;2023-09-19T02:19:32;96754.28;;;16.32;76.20
26865;BME280;40618;51.166;10.322;2023-09-19T02:21:59;96761.19;;;16.33;76.09
26865;BME280;40618;51.166;10.322;2023-09-19T02:24:28;96772.38;;;16.35;76.04
26865;BME280;40618;51.166;10.322;2023-09-19T02:26:54;96766.72;;;16.28;75.63
26865;BME280;40618;51.166;10.322;2023-09-19T02:29:21;96769.50;;;16.25;76.12
26865;BME280;40618;51.166;10.322;2023-09-19T02:31:47;96772.41;;;16.20;75.70
26865;BME280;40618;51.166;10.322;2023-09-19T02:34:13;96772.78;;;16.14;75.58
26865;BME280;40618;51.166;10.322;2023-09-19T02:36:41;96772.06;;;16.12;76.19
26865;BME280;40618;51.166;10.322;2023-09-19T02:39:09;96772.91;;;16.13;75.88
26865;BME280;40618;51.166;10.322;2023-09-19T02:41:36;96774.88;;;16.09;75.56
26865;BME280;40618;51.166;10.322;2023-09-19T02:44:02;96778.72;;;16.03;75.79
26865;BME280;40618;51.166;10.322;2023-09-19T02:46:28;96786.81;;;15.99;76.14
26865;BME280;40618;51.166;10.322;2023-09-19T02:48:53;96797.47;;;15.96;75.55
26865;BME280;40618;51.166;10.322;2023-09-19T02:51:20;96790.22;;;15.86;75.52
26865;BME280;40618;51.166;10.322;2023-09-19T02:53:46;96796.28;;;15.87;75.65
26865;BME280;40618;51.166;10.322;2023-09-19T02:56:13;96798.03;;;15.86;75.16
26865;BME280;40618;51.166;10.322;2023-09-19T02:58:39;96797.41;;;15.83;75.68
26865;BME280;40618;51.166;10.322;2023-09-19T03:01:12;96793.00;;;15.83;75.07
26865;BME280;40618;51.166;10.322;2023-09-19T03:03:38;96796.81;;;15.78;75.28
26865;BME280;40618;51.166;10.322;2023-09-19T03:06:07;96810.88;;;15.75;75.05
26865;BME280;40618;51.166;10.322;2023-09-19T03:08:36;96801.47;;;15.72;75.29
26865;BME280;40618;51.166;10.322;2023-09-19T03:11:04;96806.88;;;15.69;74.74
26865;BME280;40618;51.166;10.322;2023-09-19T03:13:36;96806.13;;;15.67;74.62
26865;BME280;40618;51.166;10.322;2023-09-19T03:16:04;96820.50;;;15.60;74.51
26865;BME280;40618;51.166;10.322;2023-09-19T03:18:34;96821.41;;;15.59;74.63
26865;BME280;40618;51.166;10.322;2023-09-19T03:21:00;96822.44;;;15.56;74.86
26865;BME280;40618;51.166;10.322;2023-09-19T03:23:27;96838.09;;;15.56;74.84
26865;BME280;40618;51.166;10.322;2023-09-19T03:25:54;96828.50;;;15.57;74.34
26865;BME280;40618;51.166;10.322;2023-09-19T03:28:22;96836.50;;;15.54;74.49
26865;BME280;40618;51.166;10.322;2023-09-19T03:31:02;96833.72;;;15.57;74.31
26865;BME280;40618;51.166;10.322;2023-09-19T03:33:29;96831.28;;;15.54;74.22
26865;BME280;40618;51.166;10.322;2023-09-19T03:35:57;96828.13;;;15.49;74.58
26865;BME280;40618;51.166;10.322;2023-09-19T03:38:25;96822.97;;;15.47;74.55
26865;BME280;40618;51.166;10.322;2023-09-19T03:40:51;96821.22;;;15.48;74.74
26865;BME280;40618;51.166;10.322;2023-09-19T03:43:17;96813.50;;;15.46;74.46
26865;BME280;40618;51.166;10.322;2023-09-19T03:45:43;96817.13;;;15.44;74.31
26865;BME280;40618;51.166;10.322;2023-09-19T03:48:09;96823.38;;;15.41;74.17
26865;BME280;40618;51.166;10.322;2023-09-19T03:50:35;96821.88;;;15.37;74.45
26865;BME280;40618;51.166;10.322;2023-09-19T03:53:01;96821.09;;;15.35;74.13
26865;BME280;40618;51.166;10.322;2023-09-19T03:55:27;96825.59;;;15.33;74.20
26865;BME280;40618;51.166;10.322;2023-09-19T03:57:53;96826.59;;;15.30;74.53
26865;BME280;40618;51.166;10.322;2023-09-19T04:00:19;96826.78;;;15.27;74.23
26865;BME280;40618;51.166;10.322;2023-09-19T04:02:47;96823.53;;;15.23;73.90
26865;BME280;40618;51.166;10.322;2023-09-19T04:05:13;96829.75;;;15.21;74.03
26865;BME280;40618;51.166;10.322;2023-09-19T04:07:39;96823.81;;;15.19;74.16
26865;BME280;40618;51.166;10.322;2023-09-19T04:10:05;96841.38;;;15.15;74.04
26865;BME280;40618;51.166;10.322;2023-09-19T04:12:34;96849.31;;;15.14;74.25
26865;BME280;40618;51.166;10.322;2023-09-19T04:14:59;96841.56;;;15.12;74.27
26865;BME280;40618;51.166;10.322;2023-09-19T04:17:25;96846.78;;;15.12;74.16
26865;BME280;40618;51.166;10.322;2023-09-19T04:19:51;96851.81;;;15.15;74.30
26865;BME280;40618;51.166;10.322;2023-09-19T04:22:16;96853.69;;;15.13;74.27
26865;BME280;40618;51.166;10.322;2023-09-19T04:24:42;96845.38;;;15.06;74.00
26865;BME280;40618;51.166;10.322;2023-09-19T04:27:08;96862.88;;;15.04;73.61
26865;BME280;40618;51.166;10.322;2023-09-19T04:29:35;96849.09;;;15.02;73.70
26865;BME280;40618;51.166;10.322;2023-09-19T04:32:00;96858.13;;;14.97;73.36
26865;BME280;40618;51.166;10.322;2023-09-19T04:34:29;96859.94;;;14.95;73.81
26865;BME280;40618;51.166;10.322;2023-09-19T04:36:55;96860.22;;;14.90;73.78
26865;BME280;40618;51.166;10.322;2023-09-19T04:39:23;96868.28;;;14.85;73.79
26865;BME280;40618;51.166;10.322;2023-09-19T04:41:51;96873.59;;;14.84;73.08
26865;BME280;40618;51.166;10.322;2023-09-19T04:44:18;96882.41;;;14.81;73.57
26865;BME280;40618;51.166;10.322;2023-09-19T04:46:44;96885.81;;;14.83;73.53
26865;BME280;40618;51.166;10.322;2023-09-19T04:49:11;96891.00;;;14.83;73.19
26865;BME280;40618;51.166;10.322;2023-09-19T04:51:38;96892.03;;;14.81;73.23
26865;BME280;40618;51.166;10.322;2023-09-19T04:54:04;96890.41;;;14.78;73.42
26865;BME280;40618;51.166;10.322;2023-09-19T04:56:30;96892.94;;;14.80;72.87
26865;BME280;40618;51.166;10.322;2023-09-19T04:58:57;96888.72;;;14.77;72.83
26865;BME280;40618;51.166;10.322;2023-09-19T05:01:24;96891.44;;;14.76;72.90
26865;BME280;40618;51.166;10.322;2023-09-19T05:03:50;96894.88;;;14.76;73.11
26865;BME280;40618;51.166;10.322;2023-09-19T05:06:18;96894.81;;;14.78;72.91
26865;BME280;40618;51.166;10.322;2023-09-19T05:08:46;96892.25;;;14.76;72.95
26865;BME280;40618;51.166;10.322;2023-09-19T05:11:19;96893.13;;;14.77;72.86
26865;BME280;40618;51.166;10.322;2023-09-19T05:13:48;96897.47;;;14.76;72.78
26865;BME280;40618;51.166;10.322;2023-09-19T05:16:18;96893.75;;;14.80;73.24
26865;BME280;40618;51.166;10.322;2023-09-19T05:18:44;96900.56;;;14.83;73.08
26865;BME280;40618;51.166;10.322;2023-09-19T05:21:10;96889.13;;;14.85;72.79
26865;BME280;40618;51.166;10.322;2023-09-19T05:23:35;96894.34;;;14.85;72.78
26865;BME280;40618;51.166;10.322;2023-09-19T05:26:02;96899.75;;;14.82;72.71
26865;BME280;40618;51.166;10.322;2023-09-19T05:28:29;96893.63;;;14.83;73.08
26865;BME280;40618;51.166;10.322;2023-09-19T05:30:55;96904.78;;;14.85;73.08
26865;BME280;40618;51.166;10.322;2023-09-19T05:33:21;96900.56;;;14.83;72.81
26865;BME280;40618;51.166;10.322;2023-09-19T05:35:49;96901.25;;;14.86;73.16
26865;BME280;40618;51.166;10.322;2023-09-19T05:38:15;96896.97;;;14.85;72.92
26865;BME280;40618;51.166;10.322;2023-09-19T05:40:44;96905.56;;;14.87;73.10
26865;BME280;40618;51.166;10.322;2023-09-19T05:43:10;96899.47;;;14.87;72.83
26865;BME280;40618;51.166;10.322;2023-09-19T05:45:36;96905.63;;;14.86;72.66
26865;BME280;40618;51.166;10.322;2023-09-19T05:48:13;96908.16;;;14.87;72.94
26865;BME280;40618;51.166;10.322;2023-09-19T05:50:41;96897.72;;;14.87;73.08
26865;BME280;40618;51.166;10.322;2023-09-19T05:53:07;96896.03;;;14.86;72.99
26865;BME280;40618;51.166;10.322;2023-09-19T05:55:37;96900.25;;;14.89;73.02
26865;BME280;40618;51.166;10.322;2023-09-19T05:58:02;96900.25;;;14.89;72.94
26865;BME280;40618;51.166;10.322;2023-09-19T06:00:29;96899.31;;;14.90;72.96
26865;BME280;40618;51.166;10.322;2023-09-19T06:02:56;96891.41;;;14.92;73.25
26865;BME280;40618;51.166;10.322;2023-09-19T06:05:27;96893.00;;;14.94;73.08
26865;BME280;40618;51.166;10.322;2023-09-19T06:07:53;96895.53;;;14.96;73.09
26865;BME280;40618;51.166;10.322;2023-09-19T06:10:19;96903.34;;;14.96;72.75
26865;BME280;40618;51.166;10.322;2023-09-19T06:12:49;96906.03;;;14.94;73.18
26865;BME280;40618;51.166;10.322;2023-09-19T06:15:16;96911.16;;;14.96;72.98
26865;BME280;40618;51.166;10.322;2023-09-19T06:17:48;96911.00;;;14.99;73.40
26865;BME280;40618;51.166;10.322;2023-09-19T06:20:15;96922.00;;;15.04;73.26
26865;BME280;40618;51.166;10.322;2023-09-19T06:22:42;96921.00;;;15.06;72.95
26865;BME280;40618;51.166;10.322;2023-09-19T06:25:10;96924.53;;;15.05;72.83
26865;BME280;40618;51.166;10.322;2023-09-19T06:27:38;96922.75;;;15.06;73.24
26865;BME280;40618;51.166;10.322;2023-09-19T06:30:07;96926.44;;;15.02;73.16
26865;BME280;40618;51.166;10.322;2023-09-19T06:32:33;96941.34;;;15.00;73.22
26865;BME280;40618;51.166;10.322;2023-09-19T06:34:59;96946.75;;;14.97;72.75
26865;BME280;40618;51.166;10.322;2023-09-19T06:37:27;96963.31;;;14.96;72.91
26865;BME280;40618;51.166;10.322;2023-09-19T06:39:53;96965.91;;;14.96;73.18
26865;BME280;40618;51.166;10.322;2023-09-19T06:42:19;96973.56;;;14.99;72.62
26865;BME280;40618;51.166;10.322;2023-09-19T06:44:45;96975.47;;;14.95;72.30
26865;BME280;40618;51.166;10.322;2023-09-19T06:47:10;96984.50;;;14.89;72.42
26865;BME280;40618;51.166;10.322;2023-09-19T06:49:36;96982.81;;;14.88;72.55
26865;BME280;40618;51.166;10.322;2023-09-19T06:52:02;96999.31;;;14.89;72.45
26865;BME280;40618;51.166;10.322;2023-09-19T06:54:28;97000.47;;;14.83;72.38
26865;BME280;40618;51.166;10.322;2023-09-19T06:56:59;97004.78;;;14.84;71.73
26865;BME280;40618;51.166;10.322;2023-09-19T06:59:25;97015.44;;;14.80;71.64
26865;BME280;40618;51.166;10.322;2023-09-19T07:01:51;97012.81;;;14.80;71.94
26865;BME280;40618;51.166;10.322;2023-09-19T07:04:16;97029.47;;;14.77;71.97
26865;BME280;40618;51.166;10.322;2023-09-19T07:06:53;97025.84;;;14.80;71.86
26865;BME280;40618;51.166;10.322;2023-09-19T07:09:19;97032.94;;;14.78;71.42
26865;BME280;40618;51.166;10.322;2023-09-19T07:11:45;97023.16;;;14.81;71.74
26865;BME280;40618;51.166;10.322;2023-09-19T07:14:11;97036.97;;;14.83;71.23
26865;BME280;40618;51.166;10.322;2023-09-19T07:16:37;97031.59;;;14.86;71.33
26865;BME280;40618;51.166;10.322;2023-09-19T07:19:04;97028.81;;;14.89;71.19
26865;BME280;40618;51.166;10.322;2023-09-19T07:21:30;97031.25;;;14.93;71.04
26865;BME280;40618;51.166;10.322;2023-09-19T07:23:59;97038.91;;;14.96;71.25
26865;BME280;40618;51.166;10.322;2023-09-19T07:26:26;97044.88;;;14.98;70.91
26865;BME280;40618;51.166;10.322;2023-09-19T07:28:53;97039.50;;;15.01;70.76
26865;BME280;40618;51.166;10.322;2023-09-19T07:31:19;97032.44;;;15.03;70.64
26865;BME280;40618;51.166;10.322;2023-09-19T07:33:45;97042.34;;;15.12;71.01
26865;BME280;40618;51.166;10.322;2023-09-19T07:36:11;97049.09;;;15.16;70.59
26865;BME280;40618;51.166;10.322;2023-09-19T07:38:41;97049.09;;;15.16;70.64
26865;BME280;40618;51.166;10.322;2023-09-19T07:41:08;97050.59;;;15.20;70.65
26865;BME280;40618;51.166;10.322;2023-09-19T07:43:37;97057.50;;;15.21;70.25
26865;BME280;40618;51.166;10.322;2023-09-19T07:46:08;97054.03;;;15.21;70.27
26865;BME280;40618;51.166;10.322;2023-09-19T07:48:37;97063.63;;;15.20;69.75
26865;BME280;40618;51.166;10.322;2023-09-19T07:51:07;97069.09;;;15.16;69.39
26865;BME280;40618;51.166;10.322;2023-09-19T07:53:34;97066.75;;;15.11;69.30
26865;BME280;40618;51.166;10.322;2023-09-19T07:56:07;97067.56;;;15.12;69.23
26865;BME280;40618;51.166;10.322;2023-09-19T07:58:35;97064.31;;;15.08;69.37
26865;BME280;40618;51.166;10.322;2023-09-19T08:01:06;97052.28;;;15.05;68.98
26865;BME280;40618;51.166;10.322;2023-09-19T08:03:33;97066.91;;;15.08;68.67
26865;BME280;40618;51.166;10.322;2023-09-19T08:06:02;97062.72;;;15.05;68.95
26865;BME280;40618;51.166;10.322;2023-09-19T08:08:28;97058.31;;;15.06;68.82
26865;BME280;40618;51.166;10.322;2023-09-19T08:10:55;97051.28;;;15.08;68.89
26865;BME280;40618;51.166;10.322;2023-09-19T08:13:24;97065.75;;;15.14;68.84
26865;BME280;40618;51.166;10.322;2023-09-19T08:15:50;97070.69;;;15.18;69.23
26865;BME280;40618;51.166;10.322;2023-09-19T08:18:18;97072.28;;;15.21;68.71
26865;BME280;40618;51.166;10.322;2023-09-19T08:20:52;97077.69;;;15.18;68.23
26865;BME280;40618;51.166;10.322;2023-09-19T08:23:18;97078.47;;;15.20;68.41
26865;BME280;40618;51.166;10.322;2023-09-19T08:25:47;97075.59;;;15.25;68.82
26865;BME280;40618;51.166;10.322;2023-09-19T08:28:13;97071.97;;;15.27;68.41
26865;BME280;40618;51.166;10.322;2023-09-19T08:30:43;97072.81;;;15.28;68.35
26865;BME280;40618;51.166;10.322;2023-09-19T08:33:11;97068.09;;;15.34;69.08
26865;BME280;40618;51.166;10.322;2023-09-19T08:35:37;97069.19;;;15.46;68.81
26865;BME280;40618;51.166;10.322;2023-09-19T08:38:05;97081.13;;;15.50;68.37
26865;BME280;40618;51.166;10.322;2023-09-19T08:40:32;97081.13;;;15.50;68.51
26865;BME280;40618;51.166;10.322;2023-09-19T08:42:59;97082.81;;;15.51;68.25
26865;BME280;40618;51.166;10.322;2023-09-19T08:45:26;97083.38;;;15.56;68.12
26865;BME280;40618;51.166;10.322;2023-09-19T08:50:51;97087.75;;;15.72;68.19
26865;BME280;40618;51.166;10.322;2023-09-19T08:53:50;97088.84;;;15.84;68.66
26865;BME280;40618;51.166;10.322;2023-09-19T08:56:17;97096.16;;;15.93;68.08
26865;BME280;40618;51.166;10.322;2023-09-19T08:58:52;97095.03;;;15.97;67.75
26865;BME280;40618;51.166;10.322;2023-09-19T09:01:27;97099.66;;;16.08;67.72
26865;BME280;40618;51.166;10.322;2023-09-19T09:03:55;97114.22;;;16.12;67.72
26865;BME280;40618;51.166;10.322;2023-09-19T09:06:23;97112.34;;;16.14;67.45
26865;BME280;40618;51.166;10.322;2023-09-19T09:08:53;97113.94;;;16.17;67.09
26865;BME280;40618;51.166;10.322;2023-09-19T09:11:19;97113.09;;;16.16;66.73
26865;BME280;40618;51.166;10.322;2023-09-19T09:13:46;97109.66;;;16.16;67.14
26865;BME280;40618;51.166;10.322;2023-09-19T09:16:13;97105.16;;;16.18;67.15
26865;BME280;40618;51.166;10.322;2023-09-19T09:18:42;97101.63;;;16.19;67.04
26865;BME280;40618;51.166;10.322;2023-09-19T09:21:09;97099.75;;;16.21;67.00
26865;BME280;40618;51.166;10.322;2023-09-19T09:23:35;97095.88;;;16.28;66.98
26865;BME280;40618;51.166;10.322;2023-09-19T09:26:01;97100.38;;;16.40;67.19
26865;BME280;40618;51.166;10.322;2023-09-19T09:28:34;97087.78;;;16.47;66.91
26865;BME280;40618;51.166;10.322;2023-09-19T09:31:04;97094.97;;;16.58;67.02
26865;BME280;40618;51.166;10.322;2023-09-19T09:33:36;97089.66;;;16.60;66.56
26865;BME280;40618;51.166;10.322;2023-09-19T09:36:04;97087.59;;;16.65;66.80
26865;BME280;40618;51.166;10.322;2023-09-19T09:38:45;97077.69;;;16.70;66.41
26865;BME280;40618;51.166;10.322;2023-09-19T09:41:15;97084.78;;;16.82;66.30
26865;BME280;40618;51.166;10.322;2023-09-19T09:43:53;97083.56;;;16.88;66.04
26865;BME280;40618;51.166;10.322;2023-09-19T09:46:24;97092.88;;;16.94;66.51
26865;BME280;40618;51.166;10.322;2023-09-19T09:49:01;97093.25;;;17.02;66.20
26865;BME280;40618;51.166;10.322;2023-09-19T09:51:59;97107.59;;;17.09;65.53
26865;BME280;40618;51.166;10.322;2023-09-19T09:54:33;97110.78;;;17.14;65.38
26865;BME280;40618;51.166;10.322;2023-09-19T09:57:12;97101.97;;;17.15;64.98
26865;BME280;40618;51.166;10.322;2023-09-19T09:59:53;97098.34;;;17.18;65.04
26865;BME280;40618;51.166;10.322;2023-09-19T10:02:30;97097.19;;;17.22;64.92
26865;BME280;40618;51.166;10.322;2023-09-19T10:05:14;97110.19;;;17.23;64.57
26865;BME280;40618;51.166;10.322;2023-09-19T10:07:54;97097.69;;;17.14;64.28
26865;BME280;40618;51.166;10.322;2023-09-19T10:10:37;97098.72;;;17.12;63.83
26865;BME280;40618;51.166;10.322;2023-09-19T10:13:19;97105.91;;;17.08;63.84
26865;BME280;40618;51.166;10.322;2023-09-19T10:15:51;97091.34;;;17.04;63.94
26865;BME280;40618;51.166;10.322;2023-09-19T10:18:21;97111.91;;;17.10;64.09
26865;BME280;40618;51.166;10.322;2023-09-19T10:20:48;97105.09;;;17.07;63.73
26865;BME280;40618;51.166;10.322;2023-09-19T10:23:18;97099.41;;;17.01;63.65
26865;BME280;40618;51.166;10.322;2023-09-19T10:25:49;97111.63;;;17.00;63.66
26865;BME280;40618;51.166;10.322;2023-09-19T10:28:17;97107.03;;;17.04;63.72
26865;BME280;40618;51.166;10.322;2023-09-19T10:30:48;97104.22;;;17.07;63.65
26865;BME280;40618;51.166;10.322;2023-09-19T10:33:20;97116.69;;;17.03;63.35
26865;BME280;40618;51.166;10.322;2023-09-19T10:35:49;97111.16;;;17.08;63.72
26865;BME280;40618;51.166;10.322;2023-09-19T10:38:26;97106.59;;;17.12;63.61
26865;BME280;40618;51.166;10.322;2023-09-19T10:40:57;97103.66;;;17.16;63.65
26865;BME280;40618;51.166;10.322;2023-09-19T10:43:30;97097.88;;;17.25;63.58
26865;BME280;40618;51.166;10.322;2023-09-19T10:46:03;97094.66;;;17.35;63.81
26865;BME280;40618;51.166;10.322;2023-09-19T10:48:32;97102.31;;;17.38;63.38
26865;BME280;40618;51.166;10.322;2023-09-19T10:53:55;97098.41;;;17.31;63.44
26865;BME280;40618;51.166;10.322;2023-09-19T10:56:31;97097.09;;;17.38;63.35
26865;BME280;40618;51.166;10.322;2023-09-19T11:01:46;97104.47;;;17.46;62.92
26865;BME280;40618;51.166;10.322;2023-09-19T11:04:32;97100.84;;;17.34;62.70
26865;BME280;40618;51.166;10.322;2023-09-19T11:07:14;97093.19;;;17.31;62.23
26865;BME280;40618;51.166;10.322;2023-09-19T11:12:47;97095.59;;;17.34;62.90
26865;BME280;40618;51.166;10.322;2023-09-19T11:16:33;97102.13;;;17.41;62.82
26865;BME280;40618;51.166;10.322;2023-09-19T11:24:28;97103.44;;;17.48;62.47
26865;BME280;40618;51.166;10.322;2023-09-19T11:27:10;97093.03;;;17.47;62.52
26865;BME280;40618;51.166;10.322;2023-09-19T11:29:39;97093.69;;;17.50;62.41
26865;BME280;40618;51.166;10.322;2023-09-19T11:32:06;97089.09;;;17.54;62.12
26865;BME280;40618;51.166;10.322;2023-09-19T11:34:39;97094.25;;;17.55;62.26
26865;BME280;40618;51.166;10.322;2023-09-19T11:40:09;97079.25;;;17.57;62.03
26865;BME280;40618;51.166;10.322;2023-09-19T11:42:43;97076.63;;;17.57;62.05
26865;BME280;40618;51.166;10.322;2023-09-19T11:48:13;97079.47;;;17.54;61.58
26865;BME280;40618;51.166;10.322;2023-09-19T11:50:44;97091.53;;;17.57;61.55
26865;BME280;40618;51.166;10.322;2023-09-19T11:53:12;97091.53;;;17.57;61.47
26865;BME280;40618;51.166;10.322;2023-09-19T11:55:42;97087.00;;;17.59;61.71
26865;BME280;40618;51.166;10.322;2023-09-19T11:58:12;97094.13;;;17.57;61.24
26865;BME280;40618;51.166;10.322;2023-09-19T12:00:44;97091.31;;;17.60;61.01
26865;BME280;40618;51.166;10.322;2023-09-19T12:03:11;97098.13;;;17.63;60.53
26865;BME280;40618;51.166;10.322;2023-09-19T12:05:39;97098.22;;;17.61;61.00
26865;BME280;40618;51.166;10.322;2023-09-19T12:08:05;97100.53;;;17.66;60.98
26865;BME280;40618;51.166;10.322;2023-09-19T12:11:01;97091.44;;;17.71;60.80
26865;BME280;40618;51.166;10.322;2023-09-19T12:13:27;97094.81;;;17.73;60.90
26865;BME280;40618;51.166;10.322;2023-09-19T12:15:55;97103.34;;;17.77;60.89
26865;BME280;40618;51.166;10.322;2023-09-19T12:18:27;97094.63;;;17.76;61.07
26865;BME280;40618;51.166;10.322;2023-09-19T12:20:53;97092.84;;;17.77;61.01
26865;BME280;40618;51.166;10.322;2023-09-19T12:23:20;97112.66;;;17.81;60.75
26865;BME280;40618;51.166;10.322;2023-09-19T12:25:46;97101.53;;;17.77;60.67
26865;BME280;40618;51.166;10.322;2023-09-19T12:28:12;97099.50;;;17.68;60.25
26865;BME280;40618;51.166;10.322;2023-09-19T12:30:39;97106.00;;;17.63;60.50
26865;BME280;40618;51.166;10.322;2023-09-19T12:33:19;97091.88;;;17.65;60.32
26865;BME280;40618;51.166;10.322;2023-09-19T12:35:46;97093.13;;;17.72;60.75
26865;BME280;40618;51.166;10.322;2023-09-19T12:38:28;97083.75;;;17.83;60.48
26865;BME280;40618;51.166;10.322;2023-09-19T12:40:57;97079.88;;;17.88;60.42
26865;BME280;40618;51.166;10.322;2023-09-19T12:43:30;97078.69;;;17.94;60.26
26865;BME280;40618;51.166;10.322;2023-09-19T12:46:05;97081.41;;;17.92;60.01
26865;BME280;40618;51.166;10.322;2023-09-19T12:48:30;97082.72;;;17.85;59.54
26865;BME280;40618;51.166;10.322;2023-09-19T12:53:33;97076.06;;;17.80;59.82
26865;BME280;40618;51.166;10.322;2023-09-19T12:56:03;97077.31;;;17.74;59.99
26865;BME280;40618;51.166;10.322;2023-09-19T12:58:34;97078.34;;;17.71;59.91
26865;BME280;40618;51.166;10.322;2023-09-19T13:01:16;97067.25;;;17.68;60.08
26865;BME280;40618;51.166;10.322;2023-09-19T13:03:42;97070.44;;;17.73;60.09
26865;BME280;40618;51.166;10.322;2023-09-19T13:06:11;97069.28;;;17.77;60.16
26865;BME280;40618;51.166;10.322;2023-09-19T13:08:42;97059.53;;;17.79;60.16
26865;BME280;40618;51.166;10.322;2023-09-19T13:11:13;97063.53;;;17.85;60.42
26865;BME280;40618;51.166;10.322;2023-09-19T13:17:01;97065.47;;;17.96;60.04
26865;BME280;40618;51.166;10.322;2023-09-19T13:19:51;97073.34;;;17.96;60.24
26865;BME280;40618;51.166;10.322;2023-09-19T13:22:44;97067.88;;;17.99;60.00
26865;BME280;40618;51.166;10.322;2023-09-19T13:25:24;97072.19;;;18.00;60.40
26865;BME280;40618;51.166;10.322;2023-09-19T13:27:54;97068.09;;;17.96;59.93
26865;BME280;40618;51.166;10.322;2023-09-19T13:30:21;97074.66;;;17.88;59.51
26865;BME280;40618;51.166;10.322;2023-09-19T13:32:52;97081.75;;;17.86;59.57
26865;BME280;40618;51.166;10.322;2023-09-19T13:35:30;97070.66;;;17.83;59.47
26865;BME280;40618;51.166;10.322;2023-09-19T13:37:56;97074.31;;;17.80;59.43
26865;BME280;40618;51.166;10.322;2023-09-19T13:40:21;97080.28;;;17.82;59.37
26865;BME280;40618;51.166;10.322;2023-09-19T13:42:47;97076.50;;;17.86;59.82
26865;BME280;40618;51.166;10.322;2023-09-19T13:45:13;97078.09;;;17.89;59.64
26865;BME280;40618;51.166;10.322;2023-09-19T13:47:42;97078.09;;;17.89;59.42
26865;BME280;40618;51.166;10.322;2023-09-19T13:50:08;97067.84;;;17.86;59.65
26865;BME280;40618;51.166;10.322;2023-09-19T13:52:34;97063.41;;;17.86;59.80
26865;BME280;40618;51.166;10.322;2023-09-19T13:55:00;97054.75;;;17.86;59.50